createdAt,value
2018-02-14T00:00:40.835Z,0.00
2018-02-14T00:01:40.853Z,0.00
2018-02-14T00:02:40.774Z,0.00
2018-02-14T00:03:40.762Z,0.00
2018-02-14T00:04:40.711Z,0.00
2018-02-14T00:05:40.820Z,0.00
2018-02-14T00:06:40.647Z,0.00
2018-02-14T00:07:40.689Z,0.00
2018-02-14T00:08:40.584Z,0.00
2018-02-14T00:09:40.601Z,0.00
2018-02-14T00:10:40.521Z,0.00
2018-02-14T00:11:40.540Z,0.00
2018-02-14T00:12:40.457Z,0.00
2018-02-14T00:13:40.524Z,0.00
2018-02-14T00:14:40.394Z,0.00
2018-02-14T00:15:40.438Z,0.00
2018-02-14T00:16:40.332Z,0.00
2018-02-14T00:17:40.351Z,0.00
2018-02-14T00:18:40.271Z,0.00
2018-02-14T00:19:40.265Z,0.00
2018-02-14T00:20:40.208Z,0.00
2018-02-14T00:21:40.277Z,0.00
2018-02-14T00:22:40.142Z,0.00
2018-02-14T00:23:40.185Z,0.00
2018-02-14T00:24:40.079Z,0.00
2018-02-14T00:25:40.094Z,0.00
2018-02-14T00:26:40.016Z,0.00
2018-02-14T00:27:40.011Z,0.00
2018-02-14T00:28:39.953Z,0.00
2018-02-14T00:29:40.025Z,0.00
2018-02-14T00:30:39.888Z,0.00
2018-02-14T00:31:39.934Z,0.00
2018-02-14T00:32:39.825Z,0.00
2018-02-14T00:33:39.850Z,0.00
2018-02-14T00:34:39.767Z,0.00
2018-02-14T00:35:39.757Z,0.00
2018-02-14T00:36:39.700Z,0.00
2018-02-14T00:37:39.772Z,0.00
2018-02-14T00:38:39.637Z,0.00
2018-02-14T00:39:39.683Z,0.00
2018-02-14T00:40:39.573Z,0.00
2018-02-14T00:41:39.593Z,0.00
2018-02-14T00:42:39.512Z,0.00
2018-02-14T00:43:39.507Z,0.00
2018-02-14T00:44:39.447Z,0.00
2018-02-14T00:45:39.519Z,0.00
2018-02-14T00:46:39.385Z,0.00
2018-02-14T00:47:39.431Z,0.00
2018-02-14T00:48:39.320Z,0.00
2018-02-14T00:49:39.346Z,0.00
2018-02-14T00:50:39.257Z,0.00
2018-02-14T00:51:39.253Z,0.00
2018-02-14T00:52:39.191Z,0.00
2018-02-14T00:53:39.269Z,0.00
2018-02-14T00:54:39.134Z,0.00
2018-02-14T00:55:39.179Z,0.00
2018-02-14T00:56:39.067Z,0.00
2018-02-14T00:57:39.089Z,0.00
2018-02-14T00:58:39.003Z,0.00
2018-02-14T00:59:39.002Z,0.00
2018-02-14T01:00:38.938Z,0.00
2018-02-14T01:01:39.016Z,0.00
2018-02-14T01:02:38.874Z,0.00
2018-02-14T01:03:38.924Z,0.00
2018-02-14T01:04:38.815Z,0.00
2018-02-14T01:05:38.840Z,0.00
2018-02-14T01:06:38.749Z,0.00
2018-02-14T01:07:38.751Z,0.00
2018-02-14T01:08:38.687Z,0.00
2018-02-14T01:09:38.767Z,0.00
2018-02-14T01:10:38.628Z,0.00
2018-02-14T01:11:38.676Z,0.00
2018-02-14T01:12:38.560Z,0.00
2018-02-14T01:13:38.594Z,0.00
2018-02-14T01:14:38.495Z,0.00
2018-02-14T01:15:38.500Z,0.00
2018-02-14T01:16:38.432Z,0.00
2018-02-14T01:17:38.515Z,0.00
2018-02-14T01:18:38.369Z,0.00
2018-02-14T01:19:38.428Z,0.00
2018-02-14T01:20:38.304Z,0.00
2018-02-14T01:21:38.336Z,0.00
2018-02-14T01:22:38.241Z,0.00
2018-02-14T01:23:38.248Z,0.00
2018-02-14T01:24:38.180Z,0.00
2018-02-14T01:25:38.160Z,0.00
2018-02-14T01:26:38.112Z,0.00
2018-02-14T01:27:38.182Z,0.00
2018-02-14T01:28:38.074Z,0.00
2018-02-14T01:29:38.090Z,0.00
2018-02-14T01:30:37.985Z,0.00
2018-02-14T01:31:37.995Z,0.00
2018-02-14T01:32:37.922Z,0.00
2018-02-14T01:33:37.909Z,0.00
2018-02-14T01:34:37.858Z,0.00
2018-02-14T01:35:37.921Z,0.00
2018-02-14T01:36:37.793Z,0.00
2018-02-14T01:37:37.830Z,0.00
2018-02-14T01:38:37.729Z,0.00
2018-02-14T01:39:37.740Z,0.00
2018-02-14T01:40:37.666Z,0.00
2018-02-14T01:41:37.655Z,0.00
2018-02-14T01:42:37.601Z,0.00
2018-02-14T01:43:37.669Z,0.00
2018-02-14T01:44:37.537Z,0.00
2018-02-14T01:45:37.579Z,0.00
2018-02-14T01:46:37.472Z,0.00
2018-02-14T01:47:37.495Z,0.00
2018-02-14T01:48:37.411Z,0.00
2018-02-14T01:49:37.406Z,0.00
2018-02-14T01:50:37.346Z,0.00
2018-02-14T01:51:37.418Z,0.00
2018-02-14T01:52:37.279Z,0.00
2018-02-14T01:53:37.330Z,0.00
2018-02-14T01:54:37.220Z,0.00
2018-02-14T01:55:37.242Z,0.00
2018-02-14T01:56:37.152Z,0.00
2018-02-14T01:57:37.154Z,0.00
2018-02-14T01:58:37.091Z,0.00
2018-02-14T01:59:37.167Z,0.00
2018-02-14T02:00:37.024Z,0.00
2018-02-14T02:01:37.101Z,0.00
2018-02-14T02:02:36.959Z,0.00
2018-02-14T02:03:36.997Z,0.00
2018-02-14T02:04:36.893Z,0.00
2018-02-14T02:05:36.902Z,0.00
2018-02-14T02:06:36.832Z,0.00
2018-02-14T02:07:36.815Z,0.00
2018-02-14T02:08:36.768Z,0.00
2018-02-14T02:09:36.827Z,0.00
2018-02-14T02:10:36.705Z,0.00
2018-02-14T02:11:36.739Z,0.00
2018-02-14T02:12:36.640Z,0.00
2018-02-14T02:13:36.649Z,0.00
2018-02-14T02:14:36.576Z,0.00
2018-02-14T02:15:36.561Z,0.00
2018-02-14T02:16:36.510Z,0.00
2018-02-14T02:17:36.579Z,0.00
2018-02-14T02:18:36.442Z,0.00
2018-02-14T02:19:36.489Z,0.00
2018-02-14T02:20:36.432Z,0.00
2018-02-14T02:21:36.400Z,0.00
2018-02-14T02:22:36.356Z,0.00
2018-02-14T02:23:36.309Z,0.00
2018-02-14T02:24:36.254Z,0.00
2018-02-14T02:25:36.320Z,0.00
2018-02-14T02:26:36.188Z,0.00
2018-02-14T02:27:36.236Z,0.00
2018-02-14T02:28:36.126Z,0.00
2018-02-14T02:29:36.149Z,0.00
2018-02-14T02:30:36.060Z,0.00
2018-02-14T02:31:36.061Z,0.00
2018-02-14T02:32:35.997Z,0.00
2018-02-14T02:33:36.074Z,0.00
2018-02-14T02:34:35.934Z,0.00
2018-02-14T02:35:35.986Z,0.00
2018-02-14T02:36:35.864Z,0.00
2018-02-14T02:37:35.893Z,0.00
2018-02-14T02:38:35.802Z,0.00
2018-02-14T02:39:35.803Z,0.00
2018-02-14T02:40:35.738Z,0.00
2018-02-14T02:41:35.721Z,0.00
2018-02-14T02:42:35.674Z,0.00
2018-02-14T02:43:35.735Z,0.00
2018-02-14T02:44:35.610Z,0.00
2018-02-14T02:45:35.639Z,0.00
2018-02-14T02:46:35.550Z,0.00
2018-02-14T02:47:35.554Z,0.00
2018-02-14T02:48:35.481Z,0.00
2018-02-14T02:49:35.465Z,0.00
2018-02-14T02:50:35.416Z,0.00
2018-02-14T02:51:35.477Z,0.00
2018-02-14T02:52:35.353Z,0.00
2018-02-14T02:53:35.395Z,0.00
2018-02-14T02:54:35.287Z,0.00
2018-02-14T02:55:35.302Z,0.00
2018-02-14T02:56:35.224Z,0.00
2018-02-14T02:57:35.212Z,0.00
2018-02-14T02:58:35.160Z,0.00
2018-02-14T02:59:35.225Z,0.00
2018-02-14T03:00:35.094Z,0.00
2018-02-14T03:01:35.140Z,0.00
2018-02-14T03:02:35.029Z,0.00
2018-02-14T03:03:35.056Z,0.00
2018-02-14T03:04:34.964Z,0.00
2018-02-14T03:05:34.965Z,0.00
2018-02-14T03:06:34.916Z,0.00
2018-02-14T03:07:34.979Z,0.00
2018-02-14T03:08:34.837Z,0.00
2018-02-14T03:09:34.889Z,0.00
2018-02-14T03:10:34.776Z,0.00
2018-02-14T03:11:34.801Z,0.00
2018-02-14T03:12:34.705Z,0.00
2018-02-14T03:13:34.712Z,0.00
2018-02-14T03:14:34.644Z,0.00
2018-02-14T03:15:34.624Z,0.00
2018-02-14T03:16:34.577Z,0.00
2018-02-14T03:17:34.638Z,0.00
2018-02-14T03:18:34.514Z,0.00
2018-02-14T03:19:34.549Z,0.00
2018-02-14T03:20:34.448Z,0.00
2018-02-14T03:21:34.461Z,0.00
2018-02-14T03:22:34.384Z,0.00
2018-02-14T03:23:34.372Z,0.00
2018-02-14T03:24:34.316Z,0.00
2018-02-14T03:25:34.389Z,0.00
2018-02-14T03:26:34.256Z,0.00
2018-02-14T03:27:34.302Z,0.00
2018-02-14T03:28:34.192Z,0.00
2018-02-14T03:29:34.211Z,0.00
2018-02-14T03:30:34.122Z,0.00
2018-02-14T03:31:34.121Z,0.00
2018-02-14T03:32:34.061Z,0.00
2018-02-14T03:33:34.134Z,0.00
2018-02-14T03:34:33.993Z,0.00
2018-02-14T03:35:34.049Z,0.00
2018-02-14T03:36:33.929Z,0.00
2018-02-14T03:37:33.959Z,0.00
2018-02-14T03:38:33.866Z,0.00
2018-02-14T03:39:33.869Z,0.00
2018-02-14T03:40:33.802Z,0.00
2018-02-14T03:41:33.809Z,0.00
2018-02-14T03:42:33.738Z,0.00
2018-02-14T03:43:33.794Z,0.00
2018-02-14T03:44:33.674Z,0.00
2018-02-14T03:45:33.709Z,0.00
2018-02-14T03:46:33.607Z,0.00
2018-02-14T03:47:33.616Z,0.00
2018-02-14T03:48:33.540Z,0.00
2018-02-14T03:49:33.530Z,0.00
2018-02-14T03:50:33.476Z,0.00
2018-02-14T03:51:33.542Z,0.00
2018-02-14T03:52:33.412Z,0.00
2018-02-14T03:53:33.454Z,0.00
2018-02-14T03:54:33.348Z,0.00
2018-02-14T03:55:33.365Z,0.00
2018-02-14T03:56:33.281Z,0.00
2018-02-14T03:57:33.274Z,0.00
2018-02-14T03:58:33.213Z,0.00
2018-02-14T03:59:33.292Z,0.00
2018-02-14T04:00:33.152Z,0.00
2018-02-14T04:01:33.206Z,0.00
2018-02-14T04:02:33.084Z,0.00
2018-02-14T04:03:33.113Z,0.00
2018-02-14T04:04:33.024Z,0.00
2018-02-14T04:05:33.026Z,0.00
2018-02-14T04:06:32.958Z,0.00
2018-02-14T04:07:32.936Z,0.00
2018-02-14T04:08:32.892Z,0.00
2018-02-14T04:09:32.955Z,0.00
2018-02-14T04:10:32.825Z,0.00
2018-02-14T04:11:32.866Z,0.00
2018-02-14T04:12:32.761Z,0.00
2018-02-14T04:13:32.773Z,0.00
2018-02-14T04:14:32.696Z,0.00
2018-02-14T04:15:32.688Z,0.00
2018-02-14T04:16:32.633Z,0.00
2018-02-14T04:17:32.701Z,0.00
2018-02-14T04:18:32.566Z,0.00
2018-02-14T04:19:32.613Z,0.00
2018-02-14T04:20:32.493Z,0.00
2018-02-14T04:21:32.523Z,0.00
2018-02-14T04:22:32.437Z,0.00
2018-02-14T04:23:32.431Z,0.00
2018-02-14T04:24:32.373Z,0.00
2018-02-14T04:25:32.449Z,0.00
2018-02-14T04:26:32.306Z,0.00
2018-02-14T04:27:32.365Z,0.00
2018-02-14T04:28:32.242Z,0.00
2018-02-14T04:29:32.270Z,0.00
2018-02-14T04:30:32.177Z,0.00
2018-02-14T04:31:32.195Z,0.00
2018-02-14T04:32:32.113Z,0.00
2018-02-14T04:33:32.091Z,0.00
2018-02-14T04:34:32.046Z,0.00
2018-02-14T04:35:32.111Z,0.00
2018-02-14T04:36:31.982Z,0.00
2018-02-14T04:37:32.020Z,0.00
2018-02-14T04:38:31.914Z,0.00
2018-02-14T04:39:31.930Z,0.00
2018-02-14T04:40:31.846Z,0.00
2018-02-14T04:41:31.841Z,0.00
2018-02-14T04:42:31.788Z,0.00
2018-02-14T04:43:31.855Z,0.00
2018-02-14T04:44:31.720Z,0.00
2018-02-14T04:45:31.764Z,0.00
2018-02-14T04:46:31.656Z,0.00
2018-02-14T04:47:31.678Z,0.00
2018-02-14T04:48:31.594Z,0.00
2018-02-14T04:49:31.592Z,0.00
2018-02-14T04:50:31.528Z,0.00
2018-02-14T04:51:31.607Z,0.00
2018-02-14T04:52:31.463Z,0.00
2018-02-14T04:53:31.515Z,0.00
2018-02-14T04:54:31.402Z,0.00
2018-02-14T04:55:31.434Z,0.00
2018-02-14T04:56:31.333Z,0.00
2018-02-14T04:57:31.339Z,0.00
2018-02-14T04:58:31.269Z,0.00
2018-02-14T04:59:31.248Z,0.00
2018-02-14T05:00:31.209Z,0.00
2018-02-14T05:01:31.265Z,0.00
2018-02-14T05:02:31.139Z,0.00
2018-02-14T05:03:31.175Z,0.00
2018-02-14T05:04:31.064Z,0.00
2018-02-14T05:05:31.089Z,0.00
2018-02-14T05:06:31.005Z,0.00
2018-02-14T05:07:31.000Z,0.00
2018-02-14T05:08:30.946Z,0.00
2018-02-14T05:09:31.013Z,0.00
2018-02-14T05:10:30.877Z,0.00
2018-02-14T05:11:30.924Z,0.00
2018-02-14T05:12:30.809Z,0.00
2018-02-14T05:13:30.832Z,0.00
2018-02-14T05:14:30.748Z,0.00
2018-02-14T05:15:30.749Z,0.00
2018-02-14T05:16:30.684Z,0.00
2018-02-14T05:17:30.762Z,0.00
2018-02-14T05:18:30.607Z,0.00
2018-02-14T05:19:30.672Z,0.00
2018-02-14T05:20:30.554Z,0.00
2018-02-14T05:21:30.584Z,0.00
2018-02-14T05:22:30.488Z,0.00
2018-02-14T05:23:30.497Z,0.00
2018-02-14T05:24:30.425Z,0.00
2018-02-14T05:25:30.406Z,0.00
2018-02-14T05:26:30.357Z,0.00
2018-02-14T05:27:30.420Z,0.00
2018-02-14T05:28:30.291Z,0.00
2018-02-14T05:29:30.334Z,0.00
2018-02-14T05:30:30.223Z,0.00
2018-02-14T05:31:30.246Z,0.00
2018-02-14T05:32:30.159Z,0.00
2018-02-14T05:33:30.155Z,0.00
2018-02-14T05:34:30.094Z,0.00
2018-02-14T05:35:30.171Z,0.00
2018-02-14T05:36:30.034Z,0.00
2018-02-14T05:37:30.082Z,0.00
2018-02-14T05:38:29.965Z,0.00
2018-02-14T05:39:29.992Z,0.00
2018-02-14T05:40:29.901Z,0.00
2018-02-14T05:41:29.904Z,0.00
2018-02-14T05:42:29.835Z,0.00
2018-02-14T05:43:29.816Z,0.00
2018-02-14T05:44:29.772Z,0.00
2018-02-14T05:45:29.830Z,0.00
2018-02-14T05:46:29.701Z,0.00
2018-02-14T05:47:29.753Z,0.00
2018-02-14T05:48:29.639Z,0.00
2018-02-14T05:49:29.654Z,0.00
2018-02-14T05:50:29.571Z,0.00
2018-02-14T05:51:29.566Z,0.00
2018-02-14T05:52:29.513Z,0.00
2018-02-14T05:53:29.579Z,0.00
2018-02-14T05:54:29.436Z,0.00
2018-02-14T05:55:29.492Z,0.00
2018-02-14T05:56:29.377Z,0.00
2018-02-14T05:57:29.401Z,0.00
2018-02-14T05:58:29.320Z,0.00
2018-02-14T05:59:29.313Z,0.00
2018-02-14T06:00:29.247Z,0.00
2018-02-14T06:01:29.326Z,0.00
2018-02-14T06:02:29.181Z,0.00
2018-02-14T06:03:29.238Z,0.00
2018-02-14T06:04:29.115Z,0.00
2018-02-14T06:05:29.142Z,0.00
2018-02-14T06:06:29.051Z,0.00
2018-02-14T06:07:29.063Z,0.00
2018-02-14T06:08:28.985Z,0.00
2018-02-14T06:09:28.974Z,0.00
2018-02-14T06:10:28.923Z,0.00
2018-02-14T06:11:28.991Z,0.00
2018-02-14T06:12:28.855Z,0.00
2018-02-14T06:13:28.901Z,0.00
2018-02-14T06:14:28.788Z,0.00
2018-02-14T06:15:28.809Z,0.00
2018-02-14T06:16:28.725Z,0.00
2018-02-14T06:17:28.722Z,0.00
2018-02-14T06:18:28.660Z,0.00
2018-02-14T06:19:28.735Z,0.00
2018-02-14T06:20:28.591Z,0.00
2018-02-14T06:21:28.646Z,0.00
2018-02-14T06:22:28.530Z,0.00
2018-02-14T06:23:28.562Z,0.00
2018-02-14T06:24:28.461Z,0.00
2018-02-14T06:25:28.470Z,0.00
2018-02-14T06:26:28.398Z,0.00
2018-02-14T06:27:28.382Z,0.00
2018-02-14T06:28:28.343Z,0.00
2018-02-14T06:29:28.395Z,0.00
2018-02-14T06:30:28.268Z,0.00
2018-02-14T06:31:28.309Z,0.00
2018-02-14T06:32:28.201Z,0.00
2018-02-14T06:33:28.219Z,0.00
2018-02-14T06:34:28.132Z,0.00
2018-02-14T06:35:28.129Z,0.00
2018-02-14T06:36:28.070Z,0.00
2018-02-14T06:37:28.144Z,0.00
2018-02-14T06:38:28.003Z,0.00
2018-02-14T06:39:28.055Z,0.00
2018-02-14T06:40:27.940Z,0.00
2018-02-14T06:41:27.967Z,0.00
2018-02-14T06:42:27.875Z,0.00
2018-02-14T06:43:27.877Z,0.00
2018-02-14T06:44:27.805Z,0.00
2018-02-14T06:45:27.793Z,0.00
2018-02-14T06:46:27.738Z,0.00
2018-02-14T06:47:27.802Z,0.00
2018-02-14T06:48:27.677Z,0.00
2018-02-14T06:49:27.716Z,0.00
2018-02-14T06:50:27.608Z,5.63
2018-02-14T06:51:27.628Z,5.63
2018-02-14T06:52:27.548Z,5.63
2018-02-14T06:53:27.539Z,5.63
2018-02-14T06:54:27.478Z,5.63
2018-02-14T06:55:27.552Z,5.63
2018-02-14T06:56:27.412Z,5.63
2018-02-14T06:57:27.463Z,5.63
2018-02-14T06:58:27.349Z,5.63
2018-02-14T06:59:27.375Z,5.63
2018-02-14T07:00:27.282Z,11.25
2018-02-14T07:01:27.290Z,11.25
2018-02-14T07:02:27.216Z,11.25
2018-02-14T07:03:27.197Z,11.25
2018-02-14T07:04:27.150Z,11.25
2018-02-14T07:05:27.213Z,11.25
2018-02-14T07:06:27.085Z,11.25
2018-02-14T07:07:27.121Z,11.25
2018-02-14T07:08:27.023Z,16.88
2018-02-14T07:09:27.036Z,16.88
2018-02-14T07:10:26.954Z,16.88
2018-02-14T07:11:26.946Z,16.88
2018-02-14T07:12:26.890Z,16.88
2018-02-14T07:13:26.959Z,16.88
2018-02-14T07:14:26.825Z,16.88
2018-02-14T07:15:26.877Z,16.88
2018-02-14T07:16:26.760Z,22.50
2018-02-14T07:17:26.792Z,22.50
2018-02-14T07:18:26.693Z,22.50
2018-02-14T07:19:26.693Z,22.50
2018-02-14T07:20:26.628Z,22.50
2018-02-14T07:21:26.606Z,22.50
2018-02-14T07:22:26.559Z,22.50
2018-02-14T07:23:26.621Z,28.13
2018-02-14T07:24:26.496Z,28.13
2018-02-14T07:25:26.535Z,28.13
2018-02-14T07:26:26.434Z,28.13
2018-02-14T07:27:26.444Z,28.13
2018-02-14T07:28:26.381Z,28.13
2018-02-14T07:29:26.355Z,28.13
2018-02-14T07:30:26.299Z,33.75
2018-02-14T07:31:26.369Z,33.75
2018-02-14T07:32:26.236Z,33.75
2018-02-14T07:33:26.281Z,33.75
2018-02-14T07:34:26.171Z,33.75
2018-02-14T07:35:26.226Z,33.75
2018-02-14T07:36:26.102Z,33.75
2018-02-14T07:37:26.102Z,39.38
2018-02-14T07:38:26.037Z,39.38
2018-02-14T07:39:26.117Z,39.38
2018-02-14T07:40:25.974Z,39.38
2018-02-14T07:41:26.030Z,39.38
2018-02-14T07:42:25.905Z,39.38
2018-02-14T07:43:25.941Z,45.00
2018-02-14T07:44:25.841Z,45.00
2018-02-14T07:45:25.852Z,45.00
2018-02-14T07:46:25.774Z,45.00
2018-02-14T07:47:25.764Z,45.00
2018-02-14T07:48:25.711Z,45.00
2018-02-14T07:49:25.777Z,45.00
2018-02-14T07:50:25.643Z,45.00
2018-02-14T07:51:25.690Z,50.63
2018-02-14T07:52:25.580Z,50.63
2018-02-14T07:53:25.601Z,50.63
2018-02-14T07:54:25.515Z,50.63
2018-02-14T07:55:25.502Z,50.63
2018-02-14T07:56:25.449Z,50.63
2018-02-14T07:57:25.523Z,50.63
2018-02-14T07:58:25.433Z,56.25
2018-02-14T07:59:25.349Z,56.25
2018-02-14T08:00:25.323Z,56.25
2018-02-14T08:01:25.283Z,56.25
2018-02-14T08:02:25.255Z,56.25
2018-02-14T08:03:25.217Z,56.25
2018-02-14T08:04:25.185Z,61.88
2018-02-14T08:05:25.255Z,61.88
2018-02-14T08:06:25.118Z,61.88
2018-02-14T08:07:25.163Z,61.88
2018-02-14T08:08:25.055Z,61.88
2018-02-14T08:09:25.074Z,61.88
2018-02-14T08:10:24.988Z,61.88
2018-02-14T08:11:24.957Z,67.50
2018-02-14T08:12:25.015Z,67.50
2018-02-14T08:13:24.891Z,67.50
2018-02-14T08:14:24.927Z,67.50
2018-02-14T08:15:24.825Z,67.50
2018-02-14T08:16:24.794Z,67.50
2018-02-14T08:17:24.762Z,73.13
2018-02-14T08:18:24.853Z,73.13
2018-02-14T08:19:24.695Z,73.13
2018-02-14T08:20:24.765Z,73.13
2018-02-14T08:21:24.634Z,73.13
2018-02-14T08:22:24.680Z,78.75
2018-02-14T08:23:24.568Z,78.75
2018-02-14T08:24:24.585Z,78.75
2018-02-14T08:25:24.499Z,78.75
2018-02-14T08:26:24.603Z,78.75
2018-02-14T08:27:24.437Z,78.75
2018-02-14T08:28:24.515Z,84.38
2018-02-14T08:29:24.373Z,84.38
2018-02-14T08:30:24.426Z,84.38
2018-02-14T08:31:24.301Z,84.38
2018-02-14T08:32:24.335Z,84.38
2018-02-14T08:33:24.242Z,84.38
2018-02-14T08:34:24.356Z,84.38
2018-02-14T08:35:24.176Z,90.00
2018-02-14T08:36:24.261Z,90.00
2018-02-14T08:37:24.112Z,90.00
2018-02-14T08:38:24.173Z,90.00
2018-02-14T08:39:24.047Z,90.00
2018-02-14T08:40:24.086Z,90.00
2018-02-14T08:41:23.982Z,95.63
2018-02-14T08:42:24.099Z,95.63
2018-02-14T08:43:23.916Z,95.63
2018-02-14T08:44:23.965Z,95.63
2018-02-14T08:45:23.855Z,95.63
2018-02-14T08:46:23.920Z,95.63
2018-02-14T08:47:23.790Z,101.25
2018-02-14T08:48:23.832Z,101.25
2018-02-14T08:49:23.722Z,101.25
2018-02-14T08:50:23.845Z,101.25
2018-02-14T08:51:23.658Z,101.25
2018-02-14T08:52:23.761Z,106.88
2018-02-14T08:53:23.594Z,106.88
2018-02-14T08:54:23.667Z,106.88
2018-02-14T08:55:23.530Z,106.88
2018-02-14T08:56:23.578Z,106.88
2018-02-14T08:57:23.467Z,112.50
2018-02-14T08:58:23.595Z,112.50
2018-02-14T08:59:23.404Z,112.50
2018-02-14T09:00:23.505Z,112.50
2018-02-14T09:01:23.337Z,112.50
2018-02-14T09:02:23.411Z,118.13
2018-02-14T09:03:23.274Z,118.13
2018-02-14T09:04:23.327Z,118.13
2018-02-14T09:05:23.208Z,118.13
2018-02-14T09:06:23.239Z,118.13
2018-02-14T09:07:23.144Z,123.75
2018-02-14T09:08:23.254Z,123.75
2018-02-14T09:09:23.080Z,123.75
2018-02-14T09:10:23.158Z,123.75
2018-02-14T09:11:23.017Z,123.75
2018-02-14T09:12:23.079Z,129.38
2018-02-14T09:13:22.953Z,129.38
2018-02-14T09:14:23.087Z,129.38
2018-02-14T09:15:22.883Z,129.38
2018-02-14T09:16:23.003Z,129.38
2018-02-14T09:17:22.825Z,129.38
2018-02-14T09:18:22.915Z,135.00
2018-02-14T09:19:22.759Z,135.00
2018-02-14T09:20:22.829Z,135.00
2018-02-14T09:21:22.696Z,135.00
2018-02-14T09:22:22.841Z,129.38
2018-02-14T09:23:22.630Z,135.00
2018-02-14T09:24:22.750Z,135.00
2018-02-14T09:25:22.568Z,135.00
2018-02-14T09:26:22.661Z,140.63
2018-02-14T09:27:22.506Z,140.63
2018-02-14T09:28:22.572Z,146.25
2018-02-14T09:29:22.439Z,146.25
2018-02-14T09:30:22.586Z,157.50
2018-02-14T09:31:22.418Z,174.38
2018-02-14T09:32:22.500Z,793.13
2018-02-14T09:33:22.316Z,1541.25
2018-02-14T09:34:22.410Z,1558.13
2018-02-14T09:35:22.253Z,1518.75
2018-02-14T09:36:22.324Z,1479.38
2018-02-14T09:37:22.193Z,1456.88
2018-02-14T09:38:22.337Z,1411.88
2018-02-14T09:39:22.136Z,1383.75
2018-02-14T09:40:22.246Z,1355.63
2018-02-14T09:41:22.083Z,1344.38
2018-02-14T09:42:22.150Z,1299.38
2018-02-14T09:43:22.030Z,1276.88
2018-02-14T09:44:22.172Z,1248.75
2018-02-14T09:45:21.982Z,1231.88
2018-02-14T09:46:21.996Z,1203.75
2018-02-14T09:47:21.999Z,1186.88
2018-02-14T09:48:21.912Z,1181.25
2018-02-14T09:49:21.909Z,1153.13
2018-02-14T09:50:21.878Z,1136.25
2018-02-14T09:51:21.927Z,1125.00
2018-02-14T09:52:21.839Z,1108.13
2018-02-14T09:53:21.803Z,1108.13
2018-02-14T09:54:21.840Z,1113.75
2018-02-14T09:55:21.767Z,1125.00
2018-02-14T09:56:21.852Z,1113.75
2018-02-14T09:57:21.727Z,1130.63
2018-02-14T09:58:21.765Z,1141.88
2018-02-14T09:59:21.687Z,1192.50
2018-02-14T10:00:21.775Z,1248.75
2018-02-14T10:01:21.654Z,1299.38
2018-02-14T10:02:21.686Z,1428.75
2018-02-14T10:03:21.617Z,3273.75
2018-02-14T10:04:21.697Z,5771.25
2018-02-14T10:05:21.581Z,5045.63
2018-02-14T10:06:21.615Z,4483.13
2018-02-14T10:07:21.556Z,4230.00
2018-02-14T10:08:21.533Z,4128.75
2018-02-14T10:09:21.519Z,4021.88
2018-02-14T10:10:21.530Z,3892.50
2018-02-14T10:11:21.482Z,3853.13
2018-02-14T10:12:21.544Z,3892.50
2018-02-14T10:13:21.453Z,3740.63
2018-02-14T10:14:21.437Z,3622.50
2018-02-14T10:15:21.424Z,3673.13
2018-02-14T10:16:21.493Z,3577.50
2018-02-14T10:17:21.392Z,3611.25
2018-02-14T10:18:21.492Z,3690.00
2018-02-14T10:19:21.361Z,3622.50
2018-02-14T10:20:21.389Z,3678.75
2018-02-14T10:21:21.335Z,3751.88
2018-02-14T10:22:21.402Z,3718.13
2018-02-14T10:23:21.306Z,3712.50
2018-02-14T10:24:21.309Z,3757.50
2018-02-14T10:25:21.280Z,3740.63
2018-02-14T10:26:21.322Z,3785.63
2018-02-14T10:27:21.254Z,3706.88
2018-02-14T10:28:21.337Z,3695.63
2018-02-14T10:29:21.221Z,3706.88
2018-02-14T10:30:21.246Z,3740.63
2018-02-14T10:31:21.192Z,3684.38
2018-02-14T10:32:21.258Z,3622.50
2018-02-14T10:33:21.170Z,3757.50
2018-02-14T10:34:21.169Z,3830.63
2018-02-14T10:35:21.147Z,3723.75
2018-02-14T10:36:21.182Z,3690.00
2018-02-14T10:37:21.115Z,3583.13
2018-02-14T10:38:21.196Z,3583.13
2018-02-14T10:39:21.089Z,3678.75
2018-02-14T10:40:21.127Z,3656.25
2018-02-14T10:41:21.068Z,3706.88
2018-02-14T10:42:21.113Z,3746.25
2018-02-14T10:43:21.038Z,3622.50
2018-02-14T10:44:21.128Z,3532.50
2018-02-14T10:45:21.011Z,3555.00
2018-02-14T10:46:21.039Z,3521.25
2018-02-14T10:47:20.988Z,3470.63
2018-02-14T10:48:21.050Z,3510.00
2018-02-14T10:49:20.973Z,3532.50
2018-02-14T10:50:21.063Z,3538.13
2018-02-14T10:51:20.936Z,3616.88
2018-02-14T10:52:20.975Z,3566.25
2018-02-14T10:53:20.916Z,3448.13
2018-02-14T10:54:20.983Z,3588.75
2018-02-14T10:55:20.889Z,3431.25
2018-02-14T10:56:20.895Z,3369.38
2018-02-14T10:57:20.868Z,3380.63
2018-02-14T10:58:20.901Z,3223.13
2018-02-14T10:59:20.843Z,3335.63
2018-02-14T11:00:20.918Z,3330.00
2018-02-14T11:01:20.820Z,3301.88
2018-02-14T11:02:20.839Z,3622.50
2018-02-14T11:03:20.804Z,3656.25
2018-02-14T11:04:20.844Z,3661.88
2018-02-14T11:05:20.779Z,3538.13
2018-02-14T11:06:20.855Z,3324.38
2018-02-14T11:07:20.794Z,3150.00
2018-02-14T11:08:20.743Z,3121.88
2018-02-14T11:09:20.819Z,3088.13
2018-02-14T11:10:20.719Z,3043.13
2018-02-14T11:11:20.832Z,3003.75
2018-02-14T11:12:20.688Z,3110.63
2018-02-14T11:13:20.845Z,3279.38
2018-02-14T11:14:20.680Z,3290.63
2018-02-14T11:15:20.757Z,3330.00
2018-02-14T11:16:20.652Z,3375.00
2018-02-14T11:17:20.771Z,3273.75
2018-02-14T11:18:20.640Z,3262.50
2018-02-14T11:19:20.785Z,3228.75
2018-02-14T11:20:20.604Z,3183.75
2018-02-14T11:21:20.698Z,3211.88
2018-02-14T11:22:20.590Z,3200.63
2018-02-14T11:23:20.711Z,3060.00
2018-02-14T11:24:20.565Z,3121.88
2018-02-14T11:25:20.725Z,3155.63
2018-02-14T11:26:20.543Z,3133.13
2018-02-14T11:27:20.639Z,3060.00
2018-02-14T11:28:20.524Z,2992.50
2018-02-14T11:29:20.651Z,2992.50
2018-02-14T11:30:20.497Z,3037.50
2018-02-14T11:31:20.664Z,3065.63
2018-02-14T11:32:20.476Z,3031.88
2018-02-14T11:33:20.576Z,2998.13
2018-02-14T11:34:20.455Z,3031.88
2018-02-14T11:35:20.589Z,3031.88
2018-02-14T11:36:20.437Z,2986.88
2018-02-14T11:37:20.603Z,2992.50
2018-02-14T11:38:20.412Z,2986.88
2018-02-14T11:39:20.515Z,3037.50
2018-02-14T11:40:20.392Z,3015.00
2018-02-14T11:41:20.527Z,2964.38
2018-02-14T11:42:20.374Z,2970.00
2018-02-14T11:43:20.542Z,3020.63
2018-02-14T11:44:20.348Z,2964.38
2018-02-14T11:45:20.455Z,2896.88
2018-02-14T11:46:20.328Z,2936.25
2018-02-14T11:47:20.473Z,2936.25
2018-02-14T11:48:20.305Z,2941.88
2018-02-14T11:49:20.486Z,2930.63
2018-02-14T11:50:20.285Z,2947.50
2018-02-14T11:51:20.394Z,2902.50
2018-02-14T11:52:20.263Z,2885.63
2018-02-14T11:53:20.408Z,2880.00
2018-02-14T11:54:20.240Z,2846.25
2018-02-14T11:55:20.422Z,2840.63
2018-02-14T11:56:20.216Z,2818.13
2018-02-14T11:57:20.331Z,2795.63
2018-02-14T11:58:20.201Z,2795.63
2018-02-14T11:59:20.354Z,2784.38
2018-02-14T12:00:20.175Z,2705.63
2018-02-14T12:01:20.358Z,2643.75
2018-02-14T12:02:20.154Z,2649.38
2018-02-14T12:03:20.272Z,2610.00
2018-02-14T12:04:20.136Z,2570.63
2018-02-14T12:05:20.182Z,2508.75
2018-02-14T12:06:20.110Z,2413.13
2018-02-14T12:07:20.300Z,2379.38
2018-02-14T12:08:20.088Z,2328.75
2018-02-14T12:09:20.105Z,2295.00
2018-02-14T12:10:20.067Z,2289.38
2018-02-14T12:11:20.225Z,2210.63
2018-02-14T12:12:20.047Z,2176.88
2018-02-14T12:13:20.136Z,2137.50
2018-02-14T12:14:20.023Z,2053.13
2018-02-14T12:15:20.151Z,1951.88
2018-02-14T12:16:20.002Z,1507.50
2018-02-14T12:17:20.063Z,1040.63
2018-02-14T12:18:19.975Z,950.63
2018-02-14T12:19:20.076Z,922.50
2018-02-14T12:20:19.957Z,905.63
2018-02-14T12:21:20.090Z,916.88
2018-02-14T12:22:19.929Z,922.50
2018-02-14T12:23:20.105Z,950.63
2018-02-14T12:24:19.912Z,911.25
2018-02-14T12:25:20.018Z,1001.25
2018-02-14T12:26:19.884Z,1080.00
2018-02-14T12:27:20.045Z,1265.63
2018-02-14T12:28:19.862Z,1715.63
2018-02-14T12:29:20.043Z,1991.25
2018-02-14T12:30:19.838Z,1895.63
2018-02-14T12:31:19.955Z,1653.75
2018-02-14T12:32:19.813Z,1186.88
2018-02-14T12:33:19.870Z,961.88
2018-02-14T12:34:19.791Z,911.25
2018-02-14T12:35:19.983Z,905.63
2018-02-14T12:36:19.767Z,916.88
2018-02-14T12:37:19.893Z,922.50
2018-02-14T12:38:19.742Z,922.50
2018-02-14T12:39:19.804Z,916.88
2018-02-14T12:40:19.718Z,939.38
2018-02-14T12:41:19.820Z,933.75
2018-02-14T12:42:19.691Z,950.63
2018-02-14T12:43:19.734Z,933.75
2018-02-14T12:44:19.670Z,933.75
2018-02-14T12:45:19.749Z,945.00
2018-02-14T12:46:19.645Z,945.00
2018-02-14T12:47:19.760Z,967.50
2018-02-14T12:48:19.624Z,978.75
2018-02-14T12:49:19.671Z,1035.00
2018-02-14T12:50:19.591Z,1147.50
2018-02-14T12:51:19.685Z,1406.25
2018-02-14T12:52:19.567Z,1603.13